Time;durP1;ratioP1;P1;durP2;ratioP2;P2;SDS_P1;SDS_P2;PMS_P1;PMS_P2;Temp;Humidity;BMP_temperature;BMP_pressure;BME280_temperature;BME280_humidity;BME280_pressure;Samples;Min_cycle;Max_cycle;Signal;HPM_P1;HPM_P2
2023/12/22 00:01:29;;;;;;;0.50;0.50;;;;;;;;;;7382881;19;20003;-83
2023/12/22 00:03:55;;;;;;;2.00;0.52;;;;;;;;;;7406955;19;20006;-82
2023/12/22 00:06:20;;;;;;;0.60;0.60;;;;;;;;;;7393066;19;20011;-83
2023/12/22 00:08:45;;;;;;;2.30;0.70;;;;;;;;;;7401222;19;20472;-82
2023/12/22 00:11:10;;;;;;;0.52;0.52;;;;;;;;;;7394645;19;20006;-82
2023/12/22 00:13:36;;;;;;;0.40;0.40;;;;;;;;;;7396980;19;20025;-82
2023/12/22 00:16:01;;;;;;;1.27;0.63;;;;;;;;;;7378261;19;20416;-82
2023/12/22 00:18:27;;;;;;;2.15;0.77;;;;;;;;;;7380188;19;20006;-81
2023/12/22 00:20:53;;;;;;;1.83;0.90;;;;;;;;;;7408636;19;19999;-81
2023/12/22 00:23:21;;;;;;;2.45;0.80;;;;;;;;;;7425777;19;20031;-81
2023/12/22 00:25:46;;;;;;;0.55;0.55;;;;;;;;;;7383800;19;20018;-82
2023/12/22 00:28:12;;;;;;;0.63;0.52;;;;;;;;;;7378973;19;20098;-82
2023/12/22 00:30:37;;;;;;;0.60;0.60;;;;;;;;;;7376328;19;20019;-83
2023/12/22 00:33:03;;;;;;;1.80;0.80;;;;;;;;;;7377724;19;20017;-83
2023/12/22 00:35:28;;;;;;;2.17;0.80;;;;;;;;;;7399919;19;20013;-83
2023/12/22 00:37:53;;;;;;;1.80;0.73;;;;;;;;;;7394562;19;20003;-83
2023/12/22 00:40:19;;;;;;;1.25;0.63;;;;;;;;;;7388357;19;20006;-82
2023/12/22 00:42:44;;;;;;;1.33;0.90;;;;;;;;;;7381130;19;20006;-82
2023/12/22 00:45:10;;;;;;;1.88;1.00;;;;;;;;;;7378479;19;20014;-82
2023/12/22 00:47:35;;;;;;;1.73;0.90;;;;;;;;;;7400384;19;20003;-83
2023/12/22 00:50:02;;;;;;;0.77;0.75;;;;;;;;;;7378056;19;20046;-83
2023/12/22 00:52:28;;;;;;;1.83;0.95;;;;;;;;;;7378093;19;20009;-82
2023/12/22 00:54:53;;;;;;;2.45;1.08;;;;;;;;;;7378478;19;20002;-82
2023/12/22 00:57:18;;;;;;;3.00;0.90;;;;;;;;;;7379541;19;20006;-81
2023/12/22 00:59:47;;;;;;;1.75;0.90;;;;;;;;;;7407054;19;20113;-82
2023/12/22 01:02:13;;;;;;;1.98;1.02;;;;;;;;;;7377875;19;20003;-81
2023/12/22 01:04:39;;;;;;;2.25;1.17;;;;;;;;;;7373790;19;20364;-82
2023/12/22 01:07:04;;;;;;;2.33;1.13;;;;;;;;;;7376715;19;20009;-81
2023/12/22 01:09:29;;;;;;;1.65;1.05;;;;;;;;;;7388535;19;20026;-81
2023/12/22 01:11:54;;;;;;;5.25;1.20;;;;;;;;;;7383986;19;20015;-82
2023/12/22 01:14:20;;;;;;;1.05;0.90;;;;;;;;;;7400293;19;19999;-83
2023/12/22 01:16:45;;;;;;;1.70;0.90;;;;;;;;;;7379083;19;20776;-82
2023/12/22 01:19:10;;;;;;;3.95;1.13;;;;;;;;;;7381909;19;20006;-82
2023/12/22 01:21:36;;;;;;;1.20;0.82;;;;;;;;;;7388817;19;20064;-84
2023/12/22 01:24:01;;;;;;;1.45;0.90;;;;;;;;;;7407581;19;20032;-82
2023/12/22 01:26:27;;;;;;;1.15;0.80;;;;;;;;;;7418754;19;20003;-82
2023/12/22 01:28:53;;;;;;;4.15;1.23;;;;;;;;;;7380536;19;20013;-82
2023/12/22 01:31:19;;;;;;;1.05;0.90;;;;;;;;;;7380651;19;20038;-83
2023/12/22 01:33:44;;;;;;;1.58;1.02;;;;;;;;;;7381223;19;20010;-82
2023/12/22 01:36:10;;;;;;;3.13;1.17;;;;;;;;;;7373145;19;20543;-83
2023/12/22 01:38:35;;;;;;;3.55;0.90;;;;;;;;;;7394742;19;20033;-82
2023/12/22 01:41:00;;;;;;;3.63;1.30;;;;;;;;;;7374804;19;20023;-83
2023/12/22 01:43:26;;;;;;;5.15;1.30;;;;;;;;;;7377281;19;20002;-82
2023/12/22 01:45:55;;;;;;;4.60;1.08;;;;;;;;;;7400662;19;20460;-81
2023/12/22 01:48:23;;;;;;;3.67;1.00;;;;;;;;;;7399871;19;20046;-82
2023/12/22 01:50:52;;;;;;;3.80;1.17;;;;;;;;;;7397745;19;20050;-82
2023/12/22 01:53:19;;;;;;;3.78;1.25;;;;;;;;;;7416127;19;19998;-82
2023/12/22 01:55:46;;;;;;;3.55;1.38;;;;;;;;;;7394694;19;20014;-80
2023/12/22 01:58:11;;;;;;;2.80;1.13;;;;;;;;;;7391587;19;20492;-81
2023/12/22 02:00:37;;;;;;;3.13;1.05;;;;;;;;;;7394901;19;20002;-81
2023/12/22 02:03:02;;;;;;;2.08;1.08;;;;;;;;;;7392832;19;20005;-83
2023/12/22 02:05:29;;;;;;;5.70;1.20;;;;;;;;;;7406611;19;20062;-81
2023/12/22 02:07:54;;;;;;;1.85;0.85;;;;;;;;;;7373933;19;20018;-81
2023/12/22 02:10:20;;;;;;;2.35;0.90;;;;;;;;;;7373653;19;20031;-81
2023/12/22 02:12:46;;;;;;;5.07;1.10;;;;;;;;;;7368102;19;20018;-83
2023/12/22 02:15:11;;;;;;;0.80;0.77;;;;;;;;;;7371154;19;20007;-82
2023/12/22 02:17:58;;;;;;;2.08;1.00;;;;;;;;;;7392141;19;20002;-82
2023/12/22 02:20:24;;;;;;;2.47;1.10;;;;;;;;;;7371861;19;20035;-82
2023/12/22 02:22:53;;;;;;;2.42;1.00;;;;;;;;;;7370853;19;20032;-82
2023/12/22 02:25:18;;;;;;;2.35;0.90;;;;;;;;;;7369926;19;20041;-81
2023/12/22 02:27:57;;;;;;;3.42;1.05;;;;;;;;;;7369257;19;20010;-81
2023/12/22 02:30:26;;;;;;;1.38;0.90;;;;;;;;;;7370856;19;20026;-83
2023/12/22 02:32:58;;;;;;;4.60;0.93;;;;;;;;;;7369781;19;20041;-83
2023/12/22 02:35:25;;;;;;;2.83;1.20;;;;;;;;;;7393022;19;20009;-83
2023/12/22 02:37:53;;;;;;;3.28;1.17;;;;;;;;;;7372137;19;20006;-84
2023/12/22 02:40:19;;;;;;;3.20;1.45;;;;;;;;;;7373868;19;20010;-81
2023/12/22 02:42:45;;;;;;;1.42;1.00;;;;;;;;;;7391451;19;20014;-83
2023/12/22 02:45:17;;;;;;;1.42;1.00;;;;;;;;;;7398729;19;20936;-83
2023/12/22 02:47:43;;;;;;;3.28;0.98;;;;;;;;;;7396065;19;20560;-82
2023/12/22 02:50:09;;;;;;;2.90;0.90;;;;;;;;;;7370790;19;20021;-82
2023/12/22 02:52:35;;;;;;;3.72;0.95;;;;;;;;;;7370133;19;20002;-82
2023/12/22 02:55:01;;;;;;;2.75;1.17;;;;;;;;;;7370645;19;20081;-82
2023/12/22 02:57:26;;;;;;;3.45;1.20;;;;;;;;;;7367935;19;20018;-82
2023/12/22 02:59:52;;;;;;;3.20;1.20;;;;;;;;;;7371823;19;20006;-82
2023/12/22 03:02:17;;;;;;;6.22;1.45;;;;;;;;;;7391410;19;20027;-83
2023/12/22 03:04:43;;;;;;;4.70;1.40;;;;;;;;;;7370439;19;20010;-83
2023/12/22 03:07:08;;;;;;;1.98;1.17;;;;;;;;;;7372549;19;20096;-83
2023/12/22 03:09:34;;;;;;;2.60;1.50;;;;;;;;;;7371377;19;19998;-83
2023/12/22 03:12:01;;;;;;;4.45;1.60;;;;;;;;;;7372755;19;20007;-83
2023/12/22 03:14:32;;;;;;;3.60;1.48;;;;;;;;;;7393049;19;20449;-82
2023/12/22 03:17:01;;;;;;;4.45;1.65;;;;;;;;;;7374761;19;20007;-82
2023/12/22 03:19:27;;;;;;;3.55;1.40;;;;;;;;;;7399402;19;20003;-82
2023/12/22 03:21:52;;;;;;;6.85;1.75;;;;;;;;;;7378341;19;20033;-82
2023/12/22 03:24:22;;;;;;;4.82;1.63;;;;;;;;;;7375961;19;20006;-82
2023/12/22 03:26:48;;;;;;;7.10;1.70;;;;;;;;;;7405322;19;19998;-83
2023/12/22 03:29:13;;;;;;;7.60;1.70;;;;;;;;;;7414485;19;20007;-83
2023/12/22 03:31:39;;;;;;;3.80;1.58;;;;;;;;;;7379583;19;20005;-83
2023/12/22 03:34:04;;;;;;;4.28;1.45;;;;;;;;;;7393921;19;20508;-83
2023/12/22 03:36:29;;;;;;;5.22;1.52;;;;;;;;;;7395877;19;20014;-83
2023/12/22 03:38:54;;;;;;;4.95;1.25;;;;;;;;;;7388464;19;19994;-83
2023/12/22 03:41:20;;;;;;;3.55;1.55;;;;;;;;;;7402278;19;20014;-83
2023/12/22 03:43:45;;;;;;;7.07;1.58;;;;;;;;;;7380785;19;20010;-83
2023/12/22 03:46:11;;;;;;;4.90;1.48;;;;;;;;;;7383205;19;20053;-82
2023/12/22 03:48:36;;;;;;;4.22;1.25;;;;;;;;;;7382269;19;20010;-82
2023/12/22 03:51:01;;;;;;;5.70;1.33;;;;;;;;;;7382819;19;20034;-83
2023/12/22 03:53:27;;;;;;;6.85;1.42;;;;;;;;;;7403055;19;20002;-83
2023/12/22 03:55:52;;;;;;;7.00;2.10;;;;;;;;;;7379098;19;20002;-83
2023/12/22 03:58:17;;;;;;;4.95;1.70;;;;;;;;;;7377197;19;20010;-82
2023/12/22 04:00:43;;;;;;;5.53;1.90;;;;;;;;;;7390748;19;20006;-82
2023/12/22 04:03:08;;;;;;;3.90;1.20;;;;;;;;;;7403588;19;20023;-82
2023/12/22 04:05:33;;;;;;;7.45;1.40;;;;;;;;;;7411724;19;20683;-83
2023/12/22 04:07:58;;;;;;;4.65;1.60;;;;;;;;;;7376198;19;20132;-82
2023/12/22 04:10:24;;;;;;;4.30;1.40;;;;;;;;;;7376010;19;20054;-81
2023/12/22 04:12:49;;;;;;;4.78;1.45;;;;;;;;;;7378074;19;20021;-82
2023/12/22 04:15:14;;;;;;;5.13;1.45;;;;;;;;;;7381046;19;19998;-82
2023/12/22 04:17:40;;;;;;;4.95;1.30;;;;;;;;;;7400927;19;20012;-82
2023/12/22 04:20:07;;;;;;;4.68;1.52;;;;;;;;;;7379004;19;20426;-81
2023/12/22 04:22:32;;;;;;;3.97;1.30;;;;;;;;;;7375555;19;20013;-82
2023/12/22 04:24:57;;;;;;;7.13;1.70;;;;;;;;;;7377094;19;20007;-81
2023/12/22 04:27:22;;;;;;;3.53;1.60;;;;;;;;;;7389548;19;20507;-81
2023/12/22 04:29:48;;;;;;;5.13;1.58;;;;;;;;;;7388826;19;20010;-83
2023/12/22 04:32:13;;;;;;;5.30;1.48;;;;;;;;;;7408330;19;20031;-81
2023/12/22 04:34:38;;;;;;;5.13;1.50;;;;;;;;;;7390233;19;20003;-81
2023/12/22 04:37:04;;;;;;;6.25;1.60;;;;;;;;;;7391528;19;20007;-82
2023/12/22 04:39:29;;;;;;;3.22;1.25;;;;;;;;;;7387633;19;20017;-82
2023/12/22 04:41:54;;;;;;;4.45;1.48;;;;;;;;;;7384350;19;20074;-81
2023/12/22 04:44:20;;;;;;;6.80;1.23;;;;;;;;;;7415528;19;20057;-82
2023/12/22 04:46:45;;;;;;;6.38;1.80;;;;;;;;;;7398720;19;20021;-80
2023/12/22 04:49:10;;;;;;;5.10;1.80;;;;;;;;;;7385843;19;20002;-82
2023/12/22 04:51:36;;;;;;;4.97;1.45;;;;;;;;;;7398815;19;20042;-82
2023/12/22 04:54:01;;;;;;;8.32;1.67;;;;;;;;;;7403177;19;20034;-81
2023/12/22 04:56:26;;;;;;;8.00;1.40;;;;;;;;;;7412832;19;20006;-82
2023/12/22 04:58:52;;;;;;;6.45;1.98;;;;;;;;;;7383288;19;20030;-82
2023/12/22 05:01:18;;;;;;;5.68;2.08;;;;;;;;;;7382810;19;20018;-81
2023/12/22 05:03:43;;;;;;;6.57;1.67;;;;;;;;;;7382481;19;20002;-81
2023/12/22 05:06:09;;;;;;;8.65;1.70;;;;;;;;;;7386507;19;20022;-80
2023/12/22 05:08:34;;;;;;;6.97;1.77;;;;;;;;;;7414426;19;20052;-82
2023/12/22 05:10:59;;;;;;;5.85;1.67;;;;;;;;;;7392344;19;20104;-82
2023/12/22 05:13:25;;;;;;;5.68;1.58;;;;;;;;;;7384082;19;20003;-81
2023/12/22 05:15:50;;;;;;;8.45;2.00;;;;;;;;;;7383515;19;20027;-81
2023/12/22 05:18:15;;;;;;;7.93;1.70;;;;;;;;;;7384599;19;20027;-82
2023/12/22 05:20:41;;;;;;;5.10;1.65;;;;;;;;;;7407742;19;19995;-82
2023/12/22 05:23:06;;;;;;;6.05;1.60;;;;;;;;;;7397996;19;20027;-81
2023/12/22 05:25:32;;;;;;;6.38;1.67;;;;;;;;;;7403623;19;20002;-80
2023/12/22 05:27:57;;;;;;;3.95;1.27;;;;;;;;;;7387232;19;20010;-82
2023/12/22 05:30:22;;;;;;;4.32;1.50;;;;;;;;;;7385073;19;20006;-82
2023/12/22 05:32:48;;;;;;;3.42;1.42;;;;;;;;;;7390652;19;20032;-82
2023/12/22 05:35:13;;;;;;;6.63;1.85;;;;;;;;;;7404986;19;20007;-81
2023/12/22 05:37:38;;;;;;;3.80;1.10;;;;;;;;;;7381480;19;20126;-82
2023/12/22 05:40:06;;;;;;;3.83;1.48;;;;;;;;;;7383778;19;20061;-81
2023/12/22 05:42:31;;;;;;;4.45;1.17;;;;;;;;;;7391399;19;20015;-80
2023/12/22 05:44:58;;;;;;;4.60;1.45;;;;;;;;;;7402433;19;20017;-81
2023/12/22 05:47:23;;;;;;;4.47;1.63;;;;;;;;;;7408921;19;20027;-83
2023/12/22 05:49:48;;;;;;;4.15;1.42;;;;;;;;;;7382402;19;20007;-82
2023/12/22 05:52:14;;;;;;;7.28;2.03;;;;;;;;;;7382821;19;20458;-81
2023/12/22 05:54:39;;;;;;;6.28;1.75;;;;;;;;;;7382270;19;20015;-81
2023/12/22 05:57:07;;;;;;;4.32;1.45;;;;;;;;;;7381455;19;20047;-82
2023/12/22 05:59:34;;;;;;;4.95;1.48;;;;;;;;;;7405376;19;20002;-81
2023/12/22 06:02:00;;;;;;;7.05;1.67;;;;;;;;;;7391949;19;19998;-82
2023/12/22 06:04:25;;;;;;;4.43;1.60;;;;;;;;;;7389823;19;20031;-82
2023/12/22 06:06:50;;;;;;;8.27;1.90;;;;;;;;;;7379359;19;19994;-82
2023/12/22 06:09:18;;;;;;;9.20;1.80;;;;;;;;;;7389553;19;20019;-82
2023/12/22 06:11:43;;;;;;;9.20;1.80;;;;;;;;;;7415669;19;19999;-82
2023/12/22 06:14:09;;;;;;;25.58;11.98;;;;;;;;;;7378554;19;20447;-83
2023/12/22 06:16:34;;;;;;;13.95;4.32;;;;;;;;;;7376486;19;20006;-82
2023/12/22 06:18:59;;;;;;;7.45;1.90;;;;;;;;;;7372312;19;20006;-82
2023/12/22 06:21:25;;;;;;;5.13;1.70;;;;;;;;;;7360306;19;20074;-75
2023/12/22 06:23:50;;;;;;;8.93;2.20;;;;;;;;;;7361446;19;20041;-72
2023/12/22 06:26:15;;;;;;;3.50;1.55;;;;;;;;;;7385686;19;20005;-73
2023/12/22 06:28:41;;;;;;;6.78;1.80;;;;;;;;;;7366832;19;20017;-83
2023/12/22 06:31:07;;;;;;;9.27;2.00;;;;;;;;;;7371482;19;20010;-82
2023/12/22 06:33:32;;;;;;;6.90;1.77;;;;;;;;;;7374530;19;20034;-81
2023/12/22 06:35:58;;;;;;;6.75;1.98;;;;;;;;;;7370062;19;19995;-81
2023/12/22 06:38:23;;;;;;;8.45;2.13;;;;;;;;;;7393210;19;20052;-82
2023/12/22 06:40:48;;;;;;;7.10;1.83;;;;;;;;;;7377199;19;20596;-82
2023/12/22 06:43:14;;;;;;;5.93;1.92;;;;;;;;;;7394147;19;19998;-83
2023/12/22 06:45:40;;;;;;;10.20;2.17;;;;;;;;;;7397875;19;20003;-82
2023/12/22 06:48:06;;;;;;;11.45;2.17;;;;;;;;;;7372726;19;20005;-81
2023/12/22 06:50:32;;;;;;;11.00;2.00;;;;;;;;;;7393297;19;20002;-83
2023/12/22 06:52:57;;;;;;;13.18;2.25;;;;;;;;;;7382477;19;20014;-81
2023/12/22 06:55:23;;;;;;;6.78;1.98;;;;;;;;;;7395095;19;20056;-81
2023/12/22 06:57:49;;;;;;;14.40;4.10;;;;;;;;;;7393922;19;19999;-84
2023/12/22 07:00:14;;;;;;;10.05;2.60;;;;;;;;;;7411418;19;20006;-81
2023/12/22 07:02:40;;;;;;;11.90;2.63;;;;;;;;;;7439835;19;19991;-82
2023/12/22 07:05:25;;;;;;;9.20;1.92;;;;;;;;;;7414004;19;20006;-84
2023/12/22 07:07:53;;;;;;;8.23;1.92;;;;;;;;;;7400937;19;20053;-81
2023/12/22 07:10:18;;;;;;;13.55;2.50;;;;;;;;;;7396402;19;20015;-82
2023/12/22 07:12:43;;;;;;;10.65;2.08;;;;;;;;;;7395902;19;20006;-83
2023/12/22 07:15:09;;;;;;;11.32;2.50;;;;;;;;;;7397501;19;20010;-82
2023/12/22 07:17:34;;;;;;;15.32;2.67;;;;;;;;;;7422548;19;20346;-82
2023/12/22 07:20:02;;;;;;;11.35;2.10;;;;;;;;;;7399175;19;20014;-81
2023/12/22 07:22:28;;;;;;;7.80;2.15;;;;;;;;;;7397258;19;20002;-82
2023/12/22 07:24:55;;;;;;;12.50;2.20;;;;;;;;;;7394195;19;20006;-81
2023/12/22 07:27:24;;;;;;;6.60;1.95;;;;;;;;;;7392419;19;20007;-84
2023/12/22 07:29:50;;;;;;;9.27;1.88;;;;;;;;;;7395592;19;20006;-80
2023/12/22 07:32:15;;;;;;;10.30;2.28;;;;;;;;;;7422304;19;20008;-82
2023/12/22 07:34:40;;;;;;;11.02;2.40;;;;;;;;;;7404771;19;20021;-83
2023/12/22 07:37:06;;;;;;;9.02;1.92;;;;;;;;;;7403373;19;19991;-81
2023/12/22 07:39:31;;;;;;;15.73;5.93;;;;;;;;;;7402968;19;20020;-82
2023/12/22 07:41:58;;;;;;;15.30;3.03;;;;;;;;;;7404233;19;19991;-82
2023/12/22 07:44:26;;;;;;;10.50;2.10;;;;;;;;;;7420849;19;20357;-81
2023/12/22 07:46:58;;;;;;;8.02;2.00;;;;;;;;;;7398385;19;20014;-83
2023/12/22 07:49:24;;;;;;;6.80;1.77;;;;;;;;;;7399661;19;20014;-81
2023/12/22 07:51:51;;;;;;;9.45;1.70;;;;;;;;;;7401104;19;20047;-81
2023/12/22 07:54:17;;;;;;;4.55;1.60;;;;;;;;;;7403275;19;19995;-80
2023/12/22 07:56:42;;;;;;;6.82;1.70;;;;;;;;;;7427695;19;20027;-81
2023/12/22 07:59:08;;;;;;;7.40;2.05;;;;;;;;;;7416604;19;20022;-79
2023/12/22 08:01:33;;;;;;;6.80;1.90;;;;;;;;;;7411180;19;20002;-83
2023/12/22 08:03:59;;;;;;;5.60;1.42;;;;;;;;;;7410691;19;19994;-82
2023/12/22 08:06:24;;;;;;;12.48;2.00;;;;;;;;;;7407232;19;20046;-81
2023/12/22 08:08:49;;;;;;;8.15;1.77;;;;;;;;;;7405311;19;19995;-81
2023/12/22 08:11:15;;;;;;;14.02;5.82;;;;;;;;;;7423797;19;20019;-79
2023/12/22 08:13:40;;;;;;;8.75;2.58;;;;;;;;;;7395342;19;20010;-80
2023/12/22 08:16:06;;;;;;;7.40;2.03;;;;;;;;;;7387597;19;20055;-83
2023/12/22 08:18:31;;;;;;;5.93;1.70;;;;;;;;;;7386676;19;20098;-83
2023/12/22 08:20:57;;;;;;;8.82;2.00;;;;;;;;;;7383539;19;20458;-84
2023/12/22 08:23:22;;;;;;;7.90;1.90;;;;;;;;;;7400565;19;19990;-83
2023/12/22 08:25:47;;;;;;;9.82;1.85;;;;;;;;;;7381215;19;20014;-82
2023/12/22 08:28:14;;;;;;;9.07;1.58;;;;;;;;;;7379121;19;20078;-84
2023/12/22 08:30:39;;;;;;;9.55;2.03;;;;;;;;;;7373798;19;20006;-82
2023/12/22 08:33:05;;;;;;;11.45;2.42;;;;;;;;;;7377580;19;20031;-81
2023/12/22 08:35:30;;;;;;;10.48;2.08;;;;;;;;;;7396775;19;20042;-82
2023/12/22 08:37:55;;;;;;;9.30;1.95;;;;;;;;;;7375836;19;20520;-81
2023/12/22 08:40:25;;;;;;;8.98;1.83;;;;;;;;;;7372239;19;20007;-82
2023/12/22 08:42:54;;;;;;;7.63;2.28;;;;;;;;;;7374555;19;20087;-80
2023/12/22 08:45:19;;;;;;;8.82;2.22;;;;;;;;;;7375563;19;20022;-81
2023/12/22 08:47:45;;;;;;;10.82;2.50;;;;;;;;;;7400621;19;20006;-82
2023/12/22 08:50:12;;;;;;;9.18;2.03;;;;;;;;;;7376006;19;20017;-82
2023/12/22 08:52:38;;;;;;;10.73;2.33;;;;;;;;;;7384564;19;20509;-81
2023/12/22 08:55:05;;;;;;;12.43;2.10;;;;;;;;;;7379275;19;20039;-82
2023/12/22 08:57:31;;;;;;;9.27;2.22;;;;;;;;;;7379270;19;20016;-81
2023/12/22 08:59:56;;;;;;;8.57;2.50;;;;;;;;;;7380598;19;19999;-81
2023/12/22 09:02:22;;;;;;;8.93;2.28;;;;;;;;;;7399639;19;20002;-82
2023/12/22 09:04:47;;;;;;;10.00;3.03;;;;;;;;;;7377254;19;20010;-81
2023/12/22 09:07:12;;;;;;;18.75;6.95;;;;;;;;;;7377182;19;20013;-82
2023/12/22 09:09:38;;;;;;;34.30;10.65;;;;;;;;;;7379143;19;20089;-80
2023/12/22 09:12:04;;;;;;;21.80;5.32;;;;;;;;;;7382277;19;20055;-82
2023/12/22 09:14:30;;;;;;;20.83;4.47;;;;;;;;;;7399496;19;20006;-81
2023/12/22 09:16:55;;;;;;;25.23;4.22;;;;;;;;;;7375483;19;20017;-82
2023/12/22 09:19:21;;;;;;;17.30;3.72;;;;;;;;;;7380054;19;20489;-83
2023/12/22 09:21:47;;;;;;;12.05;3.42;;;;;;;;;;7380462;19;20030;-81
2023/12/22 09:24:12;;;;;;;18.15;3.40;;;;;;;;;;7400079;19;20025;-83
2023/12/22 09:26:37;;;;;;;15.73;3.20;;;;;;;;;;7422171;19;20046;-81
2023/12/22 09:29:03;;;;;;;12.95;2.85;;;;;;;;;;7379311;19;20034;-81
2023/12/22 09:31:28;;;;;;;8.88;2.70;;;;;;;;;;7376532;19;20081;-81
2023/12/22 09:33:53;;;;;;;10.57;2.55;;;;;;;;;;7376330;19;20020;-81
2023/12/22 09:36:19;;;;;;;9.60;2.78;;;;;;;;;;7375366;19;20014;-81
2023/12/22 09:38:44;;;;;;;15.63;2.42;;;;;;;;;;7411961;19;19994;-82
2023/12/22 09:41:10;;;;;;;14.32;2.80;;;;;;;;;;7388290;19;20014;-81
2023/12/22 09:43:38;;;;;;;14.85;2.97;;;;;;;;;;7375734;19;20058;-82
2023/12/22 09:46:05;;;;;;;9.45;2.55;;;;;;;;;;7373040;19;20006;-83
2023/12/22 09:48:33;;;;;;;12.30;2.92;;;;;;;;;;7372229;19;20572;-80
2023/12/22 09:51:01;;;;;;;15.75;3.08;;;;;;;;;;7373160;19;20115;-81
2023/12/22 09:53:28;;;;;;;14.32;3.83;;;;;;;;;;7395611;19;20073;-80
2023/12/22 09:55:54;;;;;;;16.42;2.92;;;;;;;;;;7375633;19;20435;-80
2023/12/22 09:58:20;;;;;;;12.23;2.60;;;;;;;;;;7376198;19;20019;-81
2023/12/22 10:00:47;;;;;;;16.65;3.10;;;;;;;;;;7374590;19;20002;-82
2023/12/22 10:03:12;;;;;;;14.52;3.58;;;;;;;;;;7375975;19;21061;-81
2023/12/22 10:05:40;;;;;;;15.43;3.08;;;;;;;;;;7400908;19;20029;-81
2023/12/22 10:08:06;;;;;;;17.58;3.72;;;;;;;;;;7377706;19;20027;-81
2023/12/22 10:10:32;;;;;;;15.35;2.63;;;;;;;;;;7376595;19;20021;-80
2023/12/22 10:12:59;;;;;;;15.52;3.00;;;;;;;;;;7379140;19;20006;-81
2023/12/22 10:15:25;;;;;;;15.68;3.08;;;;;;;;;;7385906;19;19998;-82
2023/12/22 10:17:52;;;;;;;15.40;3.17;;;;;;;;;;7393038;19;19997;-82
2023/12/22 10:20:17;;;;;;;12.00;3.13;;;;;;;;;;7407956;19;20031;-83
2023/12/22 10:22:42;;;;;;;18.30;3.38;;;;;;;;;;7384190;19;20002;-82
2023/12/22 10:25:08;;;;;;;15.15;3.35;;;;;;;;;;7382950;19;19997;-81
2023/12/22 10:27:36;;;;;;;21.05;6.72;;;;;;;;;;7386106;19;20002;-81
2023/12/22 10:30:03;;;;;;;14.68;3.40;;;;;;;;;;7396918;19;20030;-80
2023/12/22 10:32:29;;;;;;;15.45;2.97;;;;;;;;;;7405918;19;20461;-81
2023/12/22 10:34:56;;;;;;;22.40;3.50;;;;;;;;;;7384852;19;20023;-80
2023/12/22 10:37:23;;;;;;;14.32;3.22;;;;;;;;;;7387507;19;19999;-81
2023/12/22 10:39:52;;;;;;;18.50;3.28;;;;;;;;;;7383292;19;20036;-79
2023/12/22 10:42:17;;;;;;;10.30;2.58;;;;;;;;;;7382611;19;20473;-80
2023/12/22 10:44:43;;;;;;;18.50;3.35;;;;;;;;;;7405686;19;20001;-80
2023/12/22 10:47:09;;;;;;;12.88;3.13;;;;;;;;;;7399930;19;19995;-80
2023/12/22 10:49:36;;;;;;;11.65;2.85;;;;;;;;;;7403993;19;20572;-80
2023/12/22 10:52:02;;;;;;;10.90;2.90;;;;;;;;;;7400338;19;20002;-79
2023/12/22 10:54:27;;;;;;;17.60;3.15;;;;;;;;;;7400199;19;20003;-79
2023/12/22 10:56:58;;;;;;;11.07;2.40;;;;;;;;;;7401149;19;19991;-79
2023/12/22 10:59:28;;;;;;;11.27;2.42;;;;;;;;;;7421651;19;19998;-79
2023/12/22 11:01:57;;;;;;;15.80;2.85;;;;;;;;;;7398395;19;20512;-81
2023/12/22 11:04:25;;;;;;;12.30;2.72;;;;;;;;;;7390811;19;19994;-81
2023/12/22 11:06:55;;;;;;;12.90;2.83;;;;;;;;;;7405733;19;20418;-81
2023/12/22 11:09:23;;;;;;;18.55;3.13;;;;;;;;;;7399070;19;20025;-81
2023/12/22 11:11:49;;;;;;;15.63;2.78;;;;;;;;;;7397517;19;20002;-81
2023/12/22 11:14:15;;;;;;;19.50;3.42;;;;;;;;;;7422589;19;19998;-81
2023/12/22 11:16:47;;;;;;;11.57;2.72;;;;;;;;;;7394398;19;20002;-81
2023/12/22 11:19:13;;;;;;;21.63;11.45;;;;;;;;;;7395301;19;20069;-82
2023/12/22 11:21:40;;;;;;;17.33;3.78;;;;;;;;;;7390759;19;19999;-82
2023/12/22 11:24:06;;;;;;;9.05;2.45;;;;;;;;;;7393119;19;20017;-82
2023/12/22 11:26:33;;;;;;;14.68;2.67;;;;;;;;;;7414139;19;20002;-81
2023/12/22 11:29:02;;;;;;;10.32;2.15;;;;;;;;;;7389663;19;20006;-81
2023/12/22 11:31:31;;;;;;;13.35;2.72;;;;;;;;;;7393743;19;20015;-81
2023/12/22 11:33:59;;;;;;;11.65;2.20;;;;;;;;;;7392293;19;20006;-81
2023/12/22 11:36:24;;;;;;;10.82;2.40;;;;;;;;;;7395644;19;20010;-81
2023/12/22 11:38:53;;;;;;;11.88;2.53;;;;;;;;;;7391081;19;20011;-81
2023/12/22 11:41:36;;;;;;;9.38;2.40;;;;;;;;;;7415828;19;19998;-83
2023/12/22 11:44:12;;;;;;;11.70;2.80;;;;;;;;;;7393217;19;20015;-82
2023/12/22 11:46:37;;;;;;;6.30;2.28;;;;;;;;;;7395743;19;20433;-84
2023/12/22 11:49:04;;;;;;;10.52;2.38;;;;;;;;;;7392808;19;20050;-82
2023/12/22 11:51:36;;;;;;;8.07;2.58;;;;;;;;;;7395281;19;20009;-82
2023/12/22 11:54:01;;;;;;;7.47;2.17;;;;;;;;;;7399785;19;20126;-83
2023/12/22 11:56:29;;;;;;;10.38;1.95;;;;;;;;;;7427683;19;20007;-82
2023/12/22 11:58:54;;;;;;;9.48;1.88;;;;;;;;;;7402082;19;20010;-83
2023/12/22 12:01:23;;;;;;;8.02;2.20;;;;;;;;;;7402018;19;20035;-82
2023/12/22 12:03:55;;;;;;;7.78;1.80;;;;;;;;;;7408115;19;20002;-82
2023/12/22 12:06:26;;;;;;;7.82;2.28;;;;;;;;;;7402867;19;20057;-82
2023/12/22 12:08:53;;;;;;;6.63;1.85;;;;;;;;;;7398410;19;20002;-82
2023/12/22 12:11:19;;;;;;;11.63;2.30;;;;;;;;;;7416737;19;19998;-81
2023/12/22 12:13:46;;;;;;;8.50;2.10;;;;;;;;;;7391644;19;19998;-82
2023/12/22 12:16:13;;;;;;;7.82;2.30;;;;;;;;;;7392844;19;20019;-83
2023/12/22 12:18:38;;;;;;;14.45;2.88;;;;;;;;;;7390572;19;20027;-82
2023/12/22 12:21:06;;;;;;;9.00;2.08;;;;;;;;;;7387697;19;20014;-82
2023/12/22 12:23:32;;;;;;;10.20;3.40;;;;;;;;;;7408260;19;19999;-82
2023/12/22 12:25:57;;;;;;;10.02;2.25;;;;;;;;;;7387271;19;20586;-81
2023/12/22 12:28:28;;;;;;;7.82;2.00;;;;;;;;;;7387260;19;20433;-81
2023/12/22 12:31:00;;;;;;;12.07;2.60;;;;;;;;;;7393815;19;20013;-81
2023/12/22 12:33:26;;;;;;;10.40;2.97;;;;;;;;;;7402555;19;20002;-80
2023/12/22 12:35:57;;;;;;;6.47;1.92;;;;;;;;;;7403268;19;20006;-81
2023/12/22 12:39:17;;;;;;;9.45;2.53;;;;;;;;;;7420303;19;20001;-82
2023/12/22 12:41:44;;;;;;;10.23;2.30;;;;;;;;;;7295707;19;2004293;-82
2023/12/22 12:44:10;;;;;;;9.38;1.83;;;;;;;;;;7419301;19;19999;-82
2023/12/22 12:46:41;;;;;;;6.45;2.03;;;;;;;;;;7400279;19;20011;-83
2023/12/22 12:49:14;;;;;;;10.30;2.65;;;;;;;;;;7399607;19;20003;-81
2023/12/22 12:51:44;;;;;;;9.05;2.00;;;;;;;;;;7399614;19;20054;-83
2023/12/22 12:54:11;;;;;;;8.57;2.00;;;;;;;;;;7396802;19;20027;-83
2023/12/22 12:56:38;;;;;;;8.38;1.90;;;;;;;;;;7427012;19;20034;-82
2023/12/22 12:59:25;;;;;;;7.22;1.85;;;;;;;;;;7398563;19;20073;-81
2023/12/22 13:01:50;;;;;;;8.18;2.20;;;;;;;;;;7399880;19;20027;-82
2023/12/22 13:04:16;;;;;;;5.93;1.70;;;;;;;;;;7403129;19;19999;-82
2023/12/22 13:06:44;;;;;;;3.78;1.45;;;;;;;;;;7400924;19;20010;-81
2023/12/22 13:09:09;;;;;;;3.20;1.50;;;;;;;;;;7400727;19;20040;-81
2023/12/22 13:11:36;;;;;;;4.40;1.38;;;;;;;;;;7422909;19;19999;-81
2023/12/22 13:14:02;;;;;;;2.55;1.30;;;;;;;;;;7401188;19;20003;-81
2023/12/22 13:16:30;;;;;;;2.70;1.30;;;;;;;;;;7400458;19;19998;-81
2023/12/22 13:18:57;;;;;;;5.55;1.10;;;;;;;;;;7402716;19;20002;-80
2023/12/22 13:21:24;;;;;;;4.13;1.33;;;;;;;;;;7397691;19;20023;-80
2023/12/22 13:24:15;;;;;;;1.02;0.90;;;;;;;;;;7394080;19;20006;-80
2023/12/22 13:26:41;;;;;;;1.08;0.90;;;;;;;;;;7423830;19;19998;-78
2023/12/22 13:29:08;;;;;;;1.40;1.05;;;;;;;;;;7400085;19;20020;-80
2023/12/22 13:31:36;;;;;;;4.90;1.17;;;;;;;;;;7397488;19;20054;-80
2023/12/22 13:34:01;;;;;;;1.80;1.10;;;;;;;;;;7396341;19;20010;-80
2023/12/22 13:36:27;;;;;;;1.30;1.00;;;;;;;;;;7388851;19;20006;-80
2023/12/22 13:38:52;;;;;;;3.33;1.00;;;;;;;;;;7390602;19;19999;-80
2023/12/22 13:41:19;;;;;;;1.17;1.08;;;;;;;;;;7415196;19;20002;-80
2023/12/22 13:43:44;;;;;;;2.50;1.00;;;;;;;;;;7391677;19;20032;-80
2023/12/22 13:46:16;;;;;;;5.45;2.50;;;;;;;;;;7385312;19;20007;-81
2023/12/22 13:48:42;;;;;;;4.00;1.88;;;;;;;;;;7371423;19;20018;-81
2023/12/22 13:51:08;;;;;;;1.23;0.90;;;;;;;;;;7386079;19;20008;-78
2023/12/22 13:53:46;;;;;;;1.98;0.90;;;;;;;;;;7408013;19;20472;-80
2023/12/22 13:56:12;;;;;;;1.30;0.70;;;;;;;;;;7388565;19;20056;-78
2023/12/22 13:58:47;;;;;;;1.33;0.90;;;;;;;;;;7384218;19;20003;-77
2023/12/22 14:01:16;;;;;;;1.30;0.95;;;;;;;;;;7384759;19;20010;-79
2023/12/22 14:03:42;;;;;;;1.27;0.77;;;;;;;;;;7384747;19;20011;-78
2023/12/22 14:06:09;;;;;;;2.60;1.25;;;;;;;;;;7383866;19;20014;-78
2023/12/22 14:08:35;;;;;;;1.50;1.10;;;;;;;;;;7400782;19;20006;-78
2023/12/22 14:11:01;;;;;;;0.98;0.80;;;;;;;;;;7383392;19;20448;-78
2023/12/22 14:13:27;;;;;;;2.08;1.25;;;;;;;;;;7380557;19;20018;-78
2023/12/22 14:15:52;;;;;;;2.30;1.00;;;;;;;;;;7381074;19;20010;-77
2023/12/22 14:18:18;;;;;;;1.95;1.10;;;;;;;;;;7378294;19;21174;-76
2023/12/22 14:20:45;;;;;;;1.50;1.10;;;;;;;;;;7396811;19;20015;-76
2023/12/22 14:23:11;;;;;;;1.25;1.00;;;;;;;;;;7372200;19;20003;-77
2023/12/22 14:25:37;;;;;;;1.40;1.00;;;;;;;;;;7366015;19;20002;-77
2023/12/22 14:28:02;;;;;;;1.13;1.10;;;;;;;;;;7384387;19;20037;-77
2023/12/22 14:30:28;;;;;;;2.65;1.13;;;;;;;;;;7388387;19;19998;-77
2023/12/22 14:32:54;;;;;;;1.70;1.38;;;;;;;;;;7387513;19;20003;-76
2023/12/22 14:35:19;;;;;;;0.82;0.82;;;;;;;;;;7403862;19;20005;-78